Current Weather

Lewis University Airport

Lewis University Airport, Illinois (KLOT)

Report from: Monday, May 23, 2022 1:50 AM CDT
Current time: Monday, May 23, 2022 2:33 AM CDT

Nearby weather
Weather history
Weather forecast

Temperature6.8°C (44.2°F)
Wind chill5.9°C (42.7°F)
Dew point3.5°C (38.3°F)
Winds 3 kts (1.5 m/s, 3.5 mph) East-Northeast (60°)
Visibility10 mi. (16.1 km)
Clouds Sky clear
Altimeter30.36 in.Hg (1028 mB)
Relative humidity79 %
Density altitude-1,374 ft. (-419 m)
Remarks Fully automated report
Automated weather observing station with precipitation discriminator
Flight conditions Visual Meteorological Conditions
Raw dataKLOT 230650Z AUTO 06003KT 10SM CLR 07/04 A3036 RMK AO2 T00680035
An error has occurred. This application may no longer respond until reloaded. Reload 🗙